createdAt,value
2023-03-16T00:01:42.268Z,8.83
2023-03-16T00:04:08.943Z,11.83
2023-03-16T00:06:36.756Z,10.13
2023-03-16T00:09:04.052Z,7.40
2023-03-16T00:11:30.739Z,9.70
2023-03-16T00:13:58.678Z,9.13
2023-03-16T00:16:25.167Z,9.83
2023-03-16T00:18:51.672Z,8.40
2023-03-16T00:21:18.048Z,9.40
2023-03-16T00:23:44.406Z,8.40
2023-03-16T00:26:12.980Z,7.67
2023-03-16T00:28:39.425Z,11.13
2023-03-16T00:31:07.129Z,9.73
2023-03-16T00:33:36.411Z,8.67
2023-03-16T00:36:04.022Z,9.73
2023-03-16T00:38:37.238Z,8.87
2023-03-16T00:41:04.791Z,7.57
2023-03-16T00:43:31.578Z,11.17
2023-03-16T00:45:59.549Z,9.30
2023-03-16T00:48:25.925Z,9.87
2023-03-16T00:50:54.362Z,9.77
2023-03-16T00:53:22.199Z,7.20
2023-03-16T00:55:48.502Z,7.40
2023-03-16T00:58:15.039Z,7.90
2023-03-16T01:00:41.447Z,9.03
2023-03-16T01:03:07.908Z,7.87
2023-03-16T01:05:34.313Z,8.90
2023-03-16T01:08:02.720Z,9.80
2023-03-16T01:10:29.642Z,10.17
2023-03-16T01:12:56.254Z,8.13
2023-03-16T01:15:22.796Z,7.90
2023-03-16T01:17:49.247Z,7.70
2023-03-16T01:20:19.283Z,8.20
2023-03-16T01:22:45.729Z,7.60
2023-03-16T01:25:12.578Z,8.57
2023-03-16T01:27:39.202Z,9.97
2023-03-16T01:30:06.131Z,9.67
2023-03-16T01:32:32.704Z,8.40
2023-03-16T01:34:59.073Z,10.27
2023-03-16T01:37:25.485Z,9.00
2023-03-16T01:39:51.781Z,9.03
2023-03-16T01:42:18.160Z,7.30
2023-03-16T01:44:54.364Z,8.10
2023-03-16T01:47:21.034Z,9.10
2023-03-16T01:49:48.273Z,11.43
2023-03-16T01:52:16.845Z,9.67
2023-03-16T01:54:48.200Z,9.87
2023-03-16T01:57:19.348Z,8.33
2023-03-16T01:59:52.111Z,9.57
2023-03-16T02:02:19.689Z,8.37
2023-03-16T02:05:02.047Z,8.00
2023-03-16T02:07:29.365Z,8.80
2023-03-16T02:09:58.498Z,10.37
2023-03-16T02:12:25.112Z,10.33
2023-03-16T02:14:52.032Z,8.33
2023-03-16T02:17:20.856Z,8.50
2023-03-16T02:20:02.191Z,7.47
2023-03-16T02:22:28.567Z,8.87
2023-03-16T02:24:55.117Z,8.37
2023-03-16T02:27:32.779Z,12.27
2023-03-16T02:30:13.554Z,9.73
2023-03-16T02:32:40.690Z,8.37
2023-03-16T02:35:07.992Z,11.37
2023-03-16T02:37:34.425Z,12.63
2023-03-16T02:40:01.974Z,8.83
2023-03-16T02:42:29.032Z,10.43
2023-03-16T02:44:57.151Z,8.80
2023-03-16T02:47:53.413Z,8.40
2023-03-16T02:50:19.740Z,11.80
2023-03-16T02:52:47.991Z,11.67
2023-03-16T02:55:14.543Z,11.90
2023-03-16T02:57:40.961Z,11.37
2023-03-16T03:00:17.404Z,10.47
2023-03-16T03:02:44.201Z,9.90
2023-03-16T03:05:11.517Z,10.30
2023-03-16T03:07:38.022Z,12.33
2023-03-16T03:10:06.056Z,12.33
2023-03-16T03:12:35.575Z,10.73
2023-03-16T03:15:01.893Z,12.13
2023-03-16T03:17:30.113Z,12.13
2023-03-16T03:20:00.198Z,11.70
2023-03-16T03:22:26.834Z,9.80
2023-03-16T03:24:53.660Z,9.70
2023-03-16T03:27:22.526Z,11.40
2023-03-16T03:29:48.973Z,11.83
2023-03-16T03:32:15.314Z,11.80
2023-03-16T03:34:42.504Z,12.10
2023-03-16T03:37:08.940Z,13.80
2023-03-16T03:39:35.325Z,11.23
2023-03-16T03:42:03.061Z,12.20
2023-03-16T03:44:29.470Z,12.03
2023-03-16T03:46:55.809Z,10.93
2023-03-16T03:49:22.213Z,15.10
2023-03-16T03:51:48.735Z,12.17
2023-03-16T03:54:15.060Z,11.23
2023-03-16T03:56:41.407Z,12.20
2023-03-16T03:59:07.754Z,11.73
2023-03-16T04:01:34.092Z,12.33
2023-03-16T04:04:00.638Z,11.10
2023-03-16T04:06:26.958Z,13.03
2023-03-16T04:08:54.281Z,13.10
2023-03-16T04:11:21.467Z,15.83
2023-03-16T04:13:47.830Z,12.13
2023-03-16T04:16:16.374Z,13.53
2023-03-16T04:18:42.768Z,14.40
2023-03-16T04:21:12.923Z,15.27
2023-03-16T04:23:39.242Z,12.23
2023-03-16T04:26:05.563Z,17.13
2023-03-16T04:28:32.663Z,14.60
2023-03-16T04:31:09.358Z,11.80
2023-03-16T04:33:36.310Z,14.73
2023-03-16T04:36:03.013Z,16.87
2023-03-16T04:38:30.059Z,15.47
2023-03-16T04:40:56.563Z,11.37
2023-03-16T04:43:22.991Z,11.90
2023-03-16T04:45:49.329Z,11.90
2023-03-16T04:48:15.860Z,13.17
2023-03-16T04:50:42.314Z,12.60
2023-03-16T04:53:08.661Z,14.03
2023-03-16T04:55:36.358Z,16.03
2023-03-16T04:58:02.822Z,11.83
2023-03-16T05:00:29.575Z,14.30
2023-03-16T05:02:56.119Z,11.13
2023-03-16T05:05:22.573Z,12.37
2023-03-16T05:07:49.149Z,15.00
2023-03-16T05:10:16.977Z,15.27
2023-03-16T05:12:43.351Z,16.03
2023-03-16T05:15:09.883Z,14.70
2023-03-16T05:17:36.310Z,12.97
2023-03-16T05:20:15.834Z,13.57
2023-03-16T05:22:43.932Z,13.90
2023-03-16T05:25:13.823Z,14.90
2023-03-16T05:27:44.014Z,15.07
2023-03-16T05:30:11.514Z,16.67
2023-03-16T05:32:38.138Z,11.90
2023-03-16T05:35:05.161Z,12.67
2023-03-16T05:37:31.648Z,12.80
2023-03-16T05:39:58.611Z,13.80
2023-03-16T05:42:27.003Z,12.67
2023-03-16T05:44:53.813Z,14.00
2023-03-16T05:47:20.521Z,11.90
2023-03-16T05:49:46.974Z,13.03
2023-03-16T05:52:13.844Z,15.33
2023-03-16T05:54:40.229Z,16.47
2023-03-16T05:57:07.041Z,12.03
2023-03-16T05:59:33.387Z,15.17
2023-03-16T06:01:59.885Z,12.53
2023-03-16T06:04:26.960Z,16.77
2023-03-16T06:06:53.421Z,13.80
2023-03-16T06:09:19.779Z,16.90
2023-03-16T06:11:46.075Z,13.90
2023-03-16T06:14:12.353Z,16.43
2023-03-16T06:16:38.870Z,17.10
2023-03-16T06:19:05.176Z,14.70
2023-03-16T06:21:31.484Z,13.93
2023-03-16T06:23:57.864Z,16.00
2023-03-16T06:26:24.285Z,13.73
2023-03-16T06:28:50.593Z,12.50
2023-03-16T06:31:17.102Z,14.87
2023-03-16T06:33:43.421Z,15.73
2023-03-16T06:36:10.237Z,17.30
2023-03-16T06:38:36.859Z,14.07
2023-03-16T06:41:03.262Z,15.20
2023-03-16T06:43:29.570Z,13.67
2023-03-16T06:45:55.947Z,15.40
2023-03-16T06:48:22.239Z,16.00
2023-03-16T06:50:48.598Z,12.60
2023-03-16T06:53:14.967Z,14.17
2023-03-16T06:55:41.689Z,14.43
2023-03-16T06:58:08.107Z,17.23
2023-03-16T07:00:34.507Z,14.20
2023-03-16T07:03:01.878Z,13.83
2023-03-16T07:05:28.231Z,14.70
2023-03-16T07:07:54.603Z,18.43
2023-03-16T07:10:21.663Z,14.93
2023-03-16T07:12:48.051Z,19.13
2023-03-16T07:15:14.438Z,17.93
2023-03-16T07:17:40.895Z,17.27
2023-03-16T07:20:10.424Z,18.67
2023-03-16T07:22:37.233Z,16.67
2023-03-16T07:25:04.344Z,18.13
2023-03-16T07:27:31.237Z,18.40
2023-03-16T07:29:57.540Z,17.67
2023-03-16T07:32:23.992Z,16.83
2023-03-16T07:34:50.465Z,18.97
2023-03-16T07:37:18.375Z,17.00
2023-03-16T07:39:48.053Z,18.03
2023-03-16T07:42:14.587Z,14.93
2023-03-16T07:44:41.783Z,17.10
2023-03-16T07:47:08.179Z,15.27
2023-03-16T07:49:34.534Z,19.13
2023-03-16T07:52:01.584Z,16.47
2023-03-16T07:54:27.952Z,14.17
2023-03-16T07:56:54.352Z,15.67
2023-03-16T07:59:21.389Z,18.30
2023-03-16T08:01:47.924Z,16.50
2023-03-16T08:04:14.449Z,18.30
2023-03-16T08:06:42.325Z,16.47
2023-03-16T08:09:08.748Z,15.73
2023-03-16T08:11:35.368Z,18.57
2023-03-16T08:14:01.700Z,17.93
2023-03-16T08:16:28.348Z,14.83
2023-03-16T08:18:58.218Z,20.93
2023-03-16T08:21:24.936Z,17.27
2023-03-16T08:23:52.031Z,15.43
2023-03-16T08:26:19.589Z,14.80
2023-03-16T08:28:46.470Z,14.83
2023-03-16T08:31:15.660Z,14.47
2023-03-16T08:33:42.712Z,14.87
2023-03-16T08:36:10.513Z,12.53
2023-03-16T08:38:37.156Z,15.97
2023-03-16T08:41:03.510Z,13.90
2023-03-16T08:43:29.849Z,15.37
2023-03-16T08:45:56.168Z,13.65
2023-03-16T08:48:22.665Z,13.68
2023-03-16T08:50:49.018Z,11.68
2023-03-16T08:53:15.335Z,12.18
2023-03-16T08:55:41.980Z,14.63
2023-03-16T08:58:09.162Z,11.65
2023-03-16T09:00:36.398Z,11.88
2023-03-16T09:03:02.875Z,12.52
2023-03-16T09:05:30.420Z,8.57
2023-03-16T09:07:56.946Z,9.98
2023-03-16T09:10:23.347Z,16.70
2023-03-16T09:12:50.268Z,10.90
2023-03-16T09:15:16.699Z,11.10
2023-03-16T09:17:44.980Z,9.57
2023-03-16T09:20:30.161Z,13.27
2023-03-16T09:22:56.956Z,10.02
2023-03-16T09:25:25.276Z,10.68
2023-03-16T09:27:52.622Z,12.57
2023-03-16T09:30:19.811Z,9.40
2023-03-16T09:32:48.722Z,10.13
2023-03-16T09:35:15.299Z,12.00
2023-03-16T09:37:45.450Z,9.20
2023-03-16T09:40:23.507Z,10.15
2023-03-16T09:43:09.175Z,9.48
2023-03-16T09:46:06.389Z,8.88
2023-03-16T09:48:35.593Z,7.07
2023-03-16T09:51:03.829Z,12.05
2023-03-16T09:53:31.421Z,10.52
2023-03-16T09:56:10.497Z,6.68
2023-03-16T09:58:36.970Z,8.45
2023-03-16T10:01:09.785Z,9.52
2023-03-16T10:03:45.013Z,6.43
2023-03-16T10:06:12.793Z,4.38
2023-03-16T10:08:40.843Z,4.72
2023-03-16T10:11:09.942Z,5.53
2023-03-16T10:13:55.118Z,5.90
2023-03-16T10:16:25.558Z,4.45
2023-03-16T10:18:56.805Z,5.20
2023-03-16T10:21:24.510Z,4.28
2023-03-16T10:23:52.171Z,4.75
2023-03-16T10:26:23.230Z,8.02
2023-03-16T10:28:49.655Z,5.53
2023-03-16T10:31:19.497Z,5.50
2023-03-16T10:33:46.069Z,3.38
2023-03-16T10:36:13.031Z,3.85
2023-03-16T10:38:39.539Z,3.38
2023-03-16T10:41:19.293Z,5.40
2023-03-16T10:44:09.023Z,2.90
2023-03-16T10:46:43.525Z,2.38
2023-03-16T10:49:20.136Z,4.18
2023-03-16T10:51:46.679Z,4.82
2023-03-16T10:54:15.672Z,4.30
2023-03-16T10:56:41.986Z,3.78
2023-03-16T10:59:34.925Z,2.72
2023-03-16T11:02:02.277Z,5.43
2023-03-16T11:04:31.693Z,2.03
2023-03-16T11:06:58.382Z,7.47
2023-03-16T11:09:27.705Z,4.40
2023-03-16T11:11:54.717Z,3.15
2023-03-16T11:14:22.714Z,5.65
2023-03-16T11:17:04.086Z,2.67
2023-03-16T11:19:31.646Z,2.13
2023-03-16T11:22:09.098Z,7.25
2023-03-16T11:24:46.040Z,2.08
2023-03-16T11:27:35.068Z,2.47
2023-03-16T11:30:06.959Z,1.85
2023-03-16T11:32:36.075Z,2.67
2023-03-16T11:35:07.991Z,5.15
2023-03-16T11:37:42.542Z,2.42
2023-03-16T11:40:15.690Z,2.35
2023-03-16T11:42:47.469Z,2.33
2023-03-16T11:45:28.586Z,4.97
2023-03-16T11:48:01.582Z,1.70
2023-03-16T11:50:31.613Z,6.25
2023-03-16T11:53:01.057Z,3.90
2023-03-16T11:55:54.457Z,2.58
2023-03-16T11:58:38.983Z,2.83
2023-03-16T12:01:08.813Z,1.88
2023-03-16T12:03:38.143Z,4.95
2023-03-16T12:06:17.122Z,3.40
2023-03-16T12:08:54.849Z,2.05
2023-03-16T12:11:34.196Z,5.13
2023-03-16T12:14:06.504Z,2.70
2023-03-16T12:16:48.728Z,3.75
2023-03-16T12:19:19.518Z,1.80
2023-03-16T12:21:47.072Z,2.97
2023-03-16T12:24:16.254Z,2.20
2023-03-16T12:26:43.152Z,2.22
2023-03-16T12:29:17.174Z,1.85
2023-03-16T12:31:49.488Z,4.55
2023-03-16T12:34:16.232Z,1.92
2023-03-16T12:36:49.899Z,3.97
2023-03-16T12:39:25.892Z,6.50
2023-03-16T12:41:52.434Z,2.17
2023-03-16T12:44:22.154Z,2.33
2023-03-16T12:46:56.557Z,2.83
2023-03-16T12:49:26.568Z,5.25
2023-03-16T12:52:03.257Z,3.45
2023-03-16T12:54:29.874Z,3.38
2023-03-16T12:57:06.842Z,4.15
2023-03-16T12:59:38.368Z,2.55
2023-03-16T13:02:06.682Z,2.53
2023-03-16T13:04:40.244Z,2.45
2023-03-16T13:07:08.188Z,2.47
2023-03-16T13:09:36.928Z,8.77
2023-03-16T13:12:07.142Z,5.00
2023-03-16T13:14:38.438Z,3.05
2023-03-16T13:17:06.466Z,4.70
2023-03-16T13:19:37.689Z,3.13
2023-03-16T13:22:22.285Z,2.22
2023-03-16T13:24:51.937Z,4.97
2023-03-16T13:27:29.329Z,2.40
2023-03-16T13:29:57.389Z,2.20
2023-03-16T13:32:25.498Z,2.90
2023-03-16T13:34:53.306Z,2.28
2023-03-16T13:37:21.234Z,2.60
2023-03-16T13:39:55.119Z,3.03
2023-03-16T13:42:23.681Z,5.57
2023-03-16T13:44:54.512Z,4.05
2023-03-16T13:47:21.313Z,2.22
2023-03-16T13:49:48.736Z,2.97
2023-03-16T13:52:25.694Z,2.40
2023-03-16T13:54:52.718Z,3.70
2023-03-16T13:57:20.820Z,3.65
2023-03-16T13:59:47.181Z,2.60
2023-03-16T14:02:20.702Z,3.05
2023-03-16T14:04:47.115Z,4.43
2023-03-16T14:07:16.995Z,2.67
2023-03-16T14:09:45.109Z,4.13
2023-03-16T14:12:14.692Z,3.30
2023-03-16T14:14:41.612Z,2.58
2023-03-16T14:17:11.110Z,1.98
2023-03-16T14:19:47.752Z,3.00
2023-03-16T14:22:15.888Z,3.85
2023-03-16T14:24:43.086Z,2.95
2023-03-16T14:27:20.308Z,3.28
2023-03-16T14:29:52.072Z,4.60
2023-03-16T14:32:28.456Z,6.20
2023-03-16T14:35:03.956Z,3.85
2023-03-16T14:37:37.243Z,4.70
2023-03-16T14:40:05.979Z,3.13
2023-03-16T14:42:32.619Z,4.78
2023-03-16T14:45:00.870Z,3.47
2023-03-16T14:47:29.252Z,4.20
2023-03-16T14:49:57.338Z,3.42
2023-03-16T14:52:27.153Z,3.38
2023-03-16T14:54:55.044Z,4.43
2023-03-16T14:57:21.840Z,4.35
2023-03-16T14:59:48.298Z,2.80
2023-03-16T15:02:16.972Z,4.35
2023-03-16T15:04:43.535Z,2.15
2023-03-16T15:07:33.812Z,5.72
2023-03-16T15:10:07.040Z,3.67
2023-03-16T15:12:34.802Z,2.42
2023-03-16T15:15:16.619Z,2.95
2023-03-16T15:17:46.430Z,2.28
2023-03-16T15:20:13.858Z,2.58
2023-03-16T15:22:40.554Z,1.60
2023-03-16T15:25:26.178Z,1.83
2023-03-16T15:27:53.852Z,8.05
2023-03-16T15:30:30.696Z,2.10
2023-03-16T15:32:57.171Z,5.30
2023-03-16T15:35:23.567Z,4.20
2023-03-16T15:37:49.861Z,3.15
2023-03-16T15:40:27.668Z,3.05
2023-03-16T15:42:54.435Z,3.47
2023-03-16T15:45:22.082Z,1.60
2023-03-16T15:47:49.658Z,2.78
2023-03-16T15:50:17.611Z,1.92
2023-03-16T15:52:45.802Z,3.88
2023-03-16T15:55:20.619Z,3.42
2023-03-16T15:57:48.453Z,4.10
2023-03-16T16:00:25.726Z,2.88
2023-03-16T16:02:52.071Z,5.82
2023-03-16T16:05:18.429Z,1.40
2023-03-16T16:07:44.850Z,2.25
2023-03-16T16:10:14.633Z,4.53
2023-03-16T16:12:41.232Z,4.30
2023-03-16T16:15:38.246Z,4.60
2023-03-16T16:18:21.686Z,4.45
2023-03-16T16:20:48.507Z,6.10
2023-03-16T16:23:14.957Z,3.20
2023-03-16T16:25:41.899Z,2.80
2023-03-16T16:28:12.782Z,1.88
2023-03-16T16:30:39.844Z,1.83
2023-03-16T16:33:27.599Z,4.07
2023-03-16T16:35:54.793Z,3.95
2023-03-16T16:38:22.040Z,2.42
2023-03-16T16:40:48.753Z,2.38
2023-03-16T16:43:18.176Z,3.83
2023-03-16T16:45:44.672Z,2.90
2023-03-16T16:48:31.872Z,1.70
2023-03-16T16:50:59.649Z,2.70
2023-03-16T16:53:26.300Z,2.03
2023-03-16T16:55:53.214Z,3.55
2023-03-16T16:58:24.556Z,3.15
2023-03-16T17:00:58.934Z,4.18
2023-03-16T17:03:29.373Z,3.42
2023-03-16T17:05:57.834Z,1.80
2023-03-16T17:08:24.889Z,1.50
2023-03-16T17:10:52.184Z,3.58
2023-03-16T17:13:25.620Z,1.70
2023-03-16T17:15:52.626Z,2.83
2023-03-16T17:18:19.593Z,2.28
2023-03-16T17:20:46.437Z,1.92
2023-03-16T17:23:15.624Z,1.65
2023-03-16T17:25:42.429Z,2.20
2023-03-16T17:28:09.081Z,3.40
2023-03-16T17:30:35.908Z,2.28
2023-03-16T17:33:11.930Z,2.35
2023-03-16T17:35:38.691Z,2.28
2023-03-16T17:38:15.581Z,1.55
2023-03-16T17:40:41.918Z,3.85
2023-03-16T17:43:13.591Z,3.33
2023-03-16T17:45:40.058Z,3.53
2023-03-16T17:48:11.464Z,4.10
2023-03-16T17:50:37.758Z,2.97
2023-03-16T17:53:04.555Z,3.88
2023-03-16T17:55:32.233Z,2.95
2023-03-16T17:57:58.877Z,2.10
2023-03-16T18:00:32.685Z,3.50
2023-03-16T18:02:59.019Z,2.70
2023-03-16T18:05:29.827Z,2.28
2023-03-16T18:07:58.385Z,4.50
2023-03-16T18:10:26.676Z,2.33
2023-03-16T18:12:55.966Z,8.40
2023-03-16T18:15:24.254Z,6.80
2023-03-16T18:17:50.938Z,4.07
2023-03-16T18:20:21.972Z,5.40
2023-03-16T18:22:48.522Z,3.00
2023-03-16T18:25:26.540Z,3.58
2023-03-16T18:27:52.864Z,3.15
2023-03-16T18:30:19.555Z,3.03
2023-03-16T18:32:46.002Z,3.15
2023-03-16T18:35:16.807Z,4.20
2023-03-16T18:37:43.216Z,2.17
2023-03-16T18:40:13.522Z,2.95
2023-03-16T18:42:40.045Z,2.15
2023-03-16T18:45:06.792Z,2.80
2023-03-16T18:47:33.127Z,3.15
2023-03-16T18:49:59.478Z,2.15
2023-03-16T18:52:27.878Z,4.78
2023-03-16T18:54:55.598Z,1.67
2023-03-16T18:57:23.440Z,3.65
2023-03-16T18:59:50.528Z,2.00
2023-03-16T19:02:34.653Z,2.67
2023-03-16T19:05:03.406Z,3.55
2023-03-16T19:07:34.590Z,3.92
2023-03-16T19:10:02.934Z,3.45
2023-03-16T19:12:29.624Z,2.22
2023-03-16T19:14:56.163Z,2.33
2023-03-16T19:17:22.517Z,2.88
2023-03-16T19:19:48.823Z,3.97
2023-03-16T19:22:16.781Z,5.78
2023-03-16T19:24:48.070Z,3.78
2023-03-16T19:27:18.032Z,5.88
2023-03-16T19:29:44.401Z,6.03
2023-03-16T19:32:15.529Z,5.82
2023-03-16T19:34:41.855Z,5.20
2023-03-16T19:37:12.303Z,4.47
2023-03-16T19:39:38.755Z,3.83
2023-03-16T19:42:05.316Z,5.00
2023-03-16T19:44:31.884Z,4.35
2023-03-16T19:47:00.150Z,4.32
2023-03-16T19:49:27.363Z,6.10
2023-03-16T19:51:54.661Z,5.13
2023-03-16T19:54:22.373Z,6.50
2023-03-16T19:56:49.240Z,6.07
2023-03-16T19:59:15.674Z,5.32
2023-03-16T20:01:42.389Z,4.60
2023-03-16T20:04:19.407Z,5.88
2023-03-16T20:06:47.152Z,4.53
2023-03-16T20:09:15.045Z,4.10
2023-03-16T20:11:41.680Z,4.32
2023-03-16T20:14:17.076Z,3.53
2023-03-16T20:16:44.207Z,3.85
2023-03-16T20:19:13.536Z,3.85
2023-03-16T20:21:39.856Z,2.28
2023-03-16T20:24:16.274Z,3.47
2023-03-16T20:26:43.521Z,5.47
2023-03-16T20:29:18.295Z,8.00
2023-03-16T20:31:44.677Z,5.22
2023-03-16T20:34:18.742Z,5.43
2023-03-16T20:36:45.536Z,9.40
2023-03-16T20:39:11.982Z,5.45
2023-03-16T20:41:39.297Z,4.45
2023-03-16T20:44:05.987Z,3.75
2023-03-16T20:46:32.943Z,3.63
2023-03-16T20:49:00.682Z,4.40
2023-03-16T20:51:27.366Z,4.82
2023-03-16T20:53:54.024Z,5.15
2023-03-16T20:56:25.308Z,3.53
2023-03-16T20:58:51.958Z,4.22
2023-03-16T21:01:20.936Z,6.03
2023-03-16T21:03:48.592Z,3.58
2023-03-16T21:06:22.728Z,6.45
2023-03-16T21:08:49.955Z,4.05
2023-03-16T21:11:21.636Z,5.70
2023-03-16T21:13:48.216Z,4.57
2023-03-16T21:16:15.433Z,3.28
2023-03-16T21:18:41.858Z,5.15
2023-03-16T21:21:12.767Z,4.50
2023-03-16T21:23:39.128Z,5.30
2023-03-16T21:26:05.596Z,3.90
2023-03-16T21:28:32.893Z,4.32
2023-03-16T21:30:59.829Z,3.75
2023-03-16T21:33:27.031Z,2.47
2023-03-16T21:35:53.514Z,3.40
2023-03-16T21:38:20.572Z,2.55
2023-03-16T21:40:47.555Z,5.25
2023-03-16T21:43:14.342Z,3.53
2023-03-16T21:45:41.155Z,4.13
2023-03-16T21:48:12.534Z,3.70
2023-03-16T21:50:39.841Z,4.00
2023-03-16T21:53:10.980Z,3.20
2023-03-16T21:55:37.307Z,5.43
2023-03-16T21:58:04.471Z,3.63
2023-03-16T22:00:32.088Z,3.70
2023-03-16T22:02:59.536Z,3.53
2023-03-16T22:05:35.058Z,4.32
2023-03-16T22:08:02.705Z,5.78
2023-03-16T22:10:29.900Z,6.22
2023-03-16T22:12:57.067Z,5.05
2023-03-16T22:15:25.189Z,5.85
2023-03-16T22:17:55.319Z,5.07
2023-03-16T22:20:23.723Z,3.47
2023-03-16T22:22:50.087Z,5.30
2023-03-16T22:25:18.731Z,5.13
2023-03-16T22:27:45.584Z,5.45
2023-03-16T22:30:16.688Z,2.85
2023-03-16T22:32:43.732Z,3.78
2023-03-16T22:35:22.710Z,3.15
2023-03-16T22:37:49.081Z,2.65
2023-03-16T22:40:18.878Z,3.22
2023-03-16T22:42:45.527Z,2.85
2023-03-16T22:45:21.462Z,3.55
2023-03-16T22:47:47.952Z,4.40
2023-03-16T22:50:16.529Z,3.28
2023-03-16T22:52:43.369Z,3.33
2023-03-16T22:55:14.838Z,4.22
2023-03-16T22:57:41.603Z,3.67
2023-03-16T23:00:11.270Z,4.38
2023-03-16T23:02:37.702Z,3.55
2023-03-16T23:05:24.586Z,3.05
2023-03-16T23:07:51.851Z,3.50
2023-03-16T23:10:19.618Z,4.70
2023-03-16T23:12:46.728Z,3.08
2023-03-16T23:15:26.485Z,3.15
2023-03-16T23:17:53.308Z,4.05
2023-03-16T23:20:27.700Z,3.85
2023-03-16T23:22:54.574Z,3.42
2023-03-16T23:25:21.655Z,3.35
2023-03-16T23:27:48.615Z,3.63
2023-03-16T23:30:16.758Z,5.15
2023-03-16T23:32:43.372Z,3.53
2023-03-16T23:35:14.108Z,3.20
2023-03-16T23:37:40.664Z,3.83
2023-03-16T23:40:07.147Z,3.50
2023-03-16T23:42:33.514Z,3.63
2023-03-16T23:45:00.800Z,4.32
2023-03-16T23:47:27.103Z,5.28
2023-03-16T23:49:53.440Z,7.93
2023-03-16T23:52:19.914Z,4.25
2023-03-16T23:54:46.335Z,3.60
2023-03-16T23:57:12.671Z,4.07
2023-03-16T23:59:39.001Z,3.72
